Weather at Mojave Airport

Public forecast

Using degrees Fahrenheit for public forecast. Weather courtesy of forecast.io.

Current aviation weather report (METAR) for Mojave Airport

Retrieved 2022/07/04 15:20 UTC (23 minutes ago):

KMHV 041520Z AUTO 27015KT 10SM CLR 23/02 A2993 RMK A01

Closest aviation forecast (TAF) to Mojave Airport

Forecast is more than 12 hours old.

Closest forecast is Edwards Air Force Base, 16.1 nm (29.8 km) SE. Retrieved 2022/06/30 21:57 UTC (4 days ago):

TAF KEDW 302100Z 3021/0203 25020G30KT 9999 SKC 520009 QNH2996INS BECMG 0102/0103 24012G18KT 9999 SKC 520009 QNH2997INS BECMG 0104/0105 VRB06KT 9999 SKC QNH2997INS BECMG 0114/0115 24012G18KT 9999 SKC 520009 QNH2997INS BECMG 0119/0120 24020G30KT 9999 SKC 520009 QNH2991INS TX35/3021Z TN19/0113Z